Terminal Aerodrome Forecast
Issued by NWS Upton, NY

Home | Current Version | Previous Version | Text Only | Print | Product List | Glossary On
Versions: 1 2 3 4 5 6 7 8 9 10 11 12 13 14 15 16 17 18 19 20 21 22 23 24 25 26 27 28 29 30 31 32 33 34 35 36 37 38 39 40 41 42 43
000
FTUS41 KOKX 202217 AAC
TAFLGA
TAF AMD
KLGA 202217Z 2022/2118 14006KT 6SM -RA BKN020 OVC070
      TEMPO 2022/2023 4SM -RA
     FM202300 13006KT 3SM -RA BR OVC015
     FM210100 17004KT 1 1/2SM -RA BR OVC010
     FM210300 18004KT 1SM -RA BR OVC008
     FM210700 VRB03KT 1SM BR OVC006
     FM211400 25006KT 5SM BR SCT006 BKN012=

USA.gov is the U.S. government's official web portal to all federal, state and local government web resources and services.